sensor_id;sensor_type;location;lat;lon;timestamp;P1;durP1;ratioP1;P2;durP2;ratioP2
25657;SDS011;13517;59.320;18.042;2022-11-23T00:00:00;10.95;;;5.10;;
25657;SDS011;13517;59.320;18.042;2022-11-23T00:02:25;10.20;;;4.95;;
25657;SDS011;13517;59.320;18.042;2022-11-23T00:04:51;10.27;;;5.50;;
25657;SDS011;13517;59.320;18.042;2022-11-23T00:07:16;11.05;;;5.10;;
25657;SDS011;13517;59.320;18.042;2022-11-23T00:09:42;9.02;;;4.78;;
25657;SDS011;13517;59.320;18.042;2022-11-23T00:12:07;9.90;;;4.93;;
25657;SDS011;13517;59.320;18.042;2022-11-23T00:14:33;8.25;;;4.93;;
25657;SDS011;13517;59.320;18.042;2022-11-23T00:16:58;8.77;;;4.32;;
25657;SDS011;13517;59.320;18.042;2022-11-23T00:19:24;9.18;;;5.03;;
25657;SDS011;13517;59.320;18.042;2022-11-23T00:21:49;8.63;;;4.32;;
25657;SDS011;13517;59.320;18.042;2022-11-23T00:24:14;6.68;;;4.60;;
25657;SDS011;13517;59.320;18.042;2022-11-23T00:26:40;6.70;;;4.50;;
25657;SDS011;13517;59.320;18.042;2022-11-23T00:29:05;7.72;;;3.88;;
25657;SDS011;13517;59.320;18.042;2022-11-23T00:31:31;8.10;;;4.38;;
25657;SDS011;13517;59.320;18.042;2022-11-23T00:33:57;8.00;;;3.85;;
25657;SDS011;13517;59.320;18.042;2022-11-23T00:36:23;6.93;;;4.30;;
25657;SDS011;13517;59.320;18.042;2022-11-23T00:38:50;8.68;;;4.43;;
25657;SDS011;13517;59.320;18.042;2022-11-23T00:41:18;7.68;;;3.92;;
25657;SDS011;13517;59.320;18.042;2022-11-23T00:43:46;10.38;;;4.78;;
25657;SDS011;13517;59.320;18.042;2022-11-23T00:46:13;8.75;;;4.55;;
25657;SDS011;13517;59.320;18.042;2022-11-23T00:48:38;7.38;;;4.47;;
25657;SDS011;13517;59.320;18.042;2022-11-23T00:51:05;6.80;;;4.38;;
25657;SDS011;13517;59.320;18.042;2022-11-23T00:53:32;7.13;;;4.47;;
25657;SDS011;13517;59.320;18.042;2022-11-23T00:55:58;8.80;;;4.50;;
25657;SDS011;13517;59.320;18.042;2022-11-23T00:58:24;5.63;;;3.42;;
25657;SDS011;13517;59.320;18.042;2022-11-23T01:00:50;6.57;;;4.15;;
25657;SDS011;13517;59.320;18.042;2022-11-23T01:03:23;7.35;;;4.15;;
25657;SDS011;13517;59.320;18.042;2022-11-23T01:05:48;7.90;;;4.03;;
25657;SDS011;13517;59.320;18.042;2022-11-23T01:08:14;6.00;;;3.72;;
25657;SDS011;13517;59.320;18.042;2022-11-23T01:10:39;6.32;;;4.00;;
25657;SDS011;13517;59.320;18.042;2022-11-23T01:13:05;8.23;;;4.07;;
25657;SDS011;13517;59.320;18.042;2022-11-23T01:15:30;9.65;;;4.40;;
25657;SDS011;13517;59.320;18.042;2022-11-23T01:17:55;7.43;;;4.63;;
25657;SDS011;13517;59.320;18.042;2022-11-23T01:20:21;8.05;;;4.38;;
25657;SDS011;13517;59.320;18.042;2022-11-23T01:22:46;7.75;;;4.10;;
25657;SDS011;13517;59.320;18.042;2022-11-23T01:25:11;7.82;;;4.20;;
25657;SDS011;13517;59.320;18.042;2022-11-23T01:27:37;6.82;;;3.35;;
25657;SDS011;13517;59.320;18.042;2022-11-23T01:30:02;5.65;;;2.80;;
25657;SDS011;13517;59.320;18.042;2022-11-23T01:32:28;4.72;;;2.85;;
25657;SDS011;13517;59.320;18.042;2022-11-23T01:34:54;5.25;;;3.00;;
25657;SDS011;13517;59.320;18.042;2022-11-23T01:37:19;4.97;;;2.80;;
25657;SDS011;13517;59.320;18.042;2022-11-23T01:39:44;5.65;;;2.95;;
25657;SDS011;13517;59.320;18.042;2022-11-23T01:42:10;5.10;;;2.80;;
25657;SDS011;13517;59.320;18.042;2022-11-23T01:44:36;5.50;;;2.83;;
25657;SDS011;13517;59.320;18.042;2022-11-23T01:47:04;4.15;;;2.95;;
25657;SDS011;13517;59.320;18.042;2022-11-23T01:52:01;5.60;;;2.92;;
25657;SDS011;13517;59.320;18.042;2022-11-23T01:54:38;7.40;;;2.80;;
25657;SDS011;13517;59.320;18.042;2022-11-23T01:57:11;4.90;;;2.60;;
25657;SDS011;13517;59.320;18.042;2022-11-23T01:59:43;5.25;;;2.58;;
25657;SDS011;13517;59.320;18.042;2022-11-23T02:02:10;4.68;;;2.70;;
25657;SDS011;13517;59.320;18.042;2022-11-23T02:04:38;4.57;;;2.78;;
25657;SDS011;13517;59.320;18.042;2022-11-23T02:07:06;3.70;;;2.45;;
25657;SDS011;13517;59.320;18.042;2022-11-23T02:09:32;4.65;;;3.00;;
25657;SDS011;13517;59.320;18.042;2022-11-23T02:11:58;4.10;;;2.45;;
25657;SDS011;13517;59.320;18.042;2022-11-23T02:14:25;4.22;;;2.58;;
25657;SDS011;13517;59.320;18.042;2022-11-23T02:16:50;6.85;;;2.63;;
25657;SDS011;13517;59.320;18.042;2022-11-23T02:19:23;4.72;;;2.22;;
25657;SDS011;13517;59.320;18.042;2022-11-23T02:24:19;3.60;;;2.17;;
25657;SDS011;13517;59.320;18.042;2022-11-23T02:26:52;6.25;;;2.47;;
25657;SDS011;13517;59.320;18.042;2022-11-23T02:29:22;4.88;;;2.00;;
25657;SDS011;13517;59.320;18.042;2022-11-23T02:31:50;5.43;;;2.33;;
25657;SDS011;13517;59.320;18.042;2022-11-23T02:34:16;5.53;;;2.10;;
25657;SDS011;13517;59.320;18.042;2022-11-23T02:36:44;4.32;;;2.20;;
25657;SDS011;13517;59.320;18.042;2022-11-23T02:41:41;2.78;;;2.20;;
25657;SDS011;13517;59.320;18.042;2022-11-23T02:44:16;2.95;;;2.08;;
25657;SDS011;13517;59.320;18.042;2022-11-23T02:46:50;4.00;;;2.30;;
25657;SDS011;13517;59.320;18.042;2022-11-23T02:49:17;4.78;;;2.60;;
25657;SDS011;13517;59.320;18.042;2022-11-23T02:51:42;8.27;;;2.10;;
25657;SDS011;13517;59.320;18.042;2022-11-23T02:54:07;3.83;;;2.55;;
25657;SDS011;13517;59.320;18.042;2022-11-23T02:56:33;3.17;;;2.40;;
25657;SDS011;13517;59.320;18.042;2022-11-23T02:58:58;6.35;;;2.45;;
25657;SDS011;13517;59.320;18.042;2022-11-23T03:01:24;4.18;;;2.38;;
25657;SDS011;13517;59.320;18.042;2022-11-23T03:03:49;3.72;;;2.17;;
25657;SDS011;13517;59.320;18.042;2022-11-23T03:06:14;4.80;;;2.03;;
25657;SDS011;13517;59.320;18.042;2022-11-23T03:08:40;6.22;;;2.45;;
25657;SDS011;13517;59.320;18.042;2022-11-23T03:11:05;3.90;;;2.63;;
25657;SDS011;13517;59.320;18.042;2022-11-23T03:13:31;4.65;;;2.97;;
25657;SDS011;13517;59.320;18.042;2022-11-23T03:15:56;6.68;;;3.28;;
25657;SDS011;13517;59.320;18.042;2022-11-23T03:18:22;4.25;;;2.95;;
25657;SDS011;13517;59.320;18.042;2022-11-23T03:20:47;4.85;;;2.85;;
25657;SDS011;13517;59.320;18.042;2022-11-23T03:23:13;6.20;;;3.03;;
25657;SDS011;13517;59.320;18.042;2022-11-23T03:25:38;6.03;;;3.08;;
25657;SDS011;13517;59.320;18.042;2022-11-23T03:28:03;4.03;;;2.63;;
25657;SDS011;13517;59.320;18.042;2022-11-23T03:30:29;3.85;;;2.60;;
25657;SDS011;13517;59.320;18.042;2022-11-23T03:32:55;4.35;;;2.85;;
25657;SDS011;13517;59.320;18.042;2022-11-23T03:35:21;7.85;;;3.65;;
25657;SDS011;13517;59.320;18.042;2022-11-23T03:37:46;3.90;;;2.83;;
25657;SDS011;13517;59.320;18.042;2022-11-23T03:40:12;4.90;;;2.95;;
25657;SDS011;13517;59.320;18.042;2022-11-23T03:42:38;4.88;;;3.15;;
25657;SDS011;13517;59.320;18.042;2022-11-23T03:45:04;4.95;;;3.28;;
25657;SDS011;13517;59.320;18.042;2022-11-23T03:47:30;5.03;;;3.55;;
25657;SDS011;13517;59.320;18.042;2022-11-23T03:49:55;4.93;;;3.20;;
25657;SDS011;13517;59.320;18.042;2022-11-23T03:52:21;5.38;;;3.13;;
25657;SDS011;13517;59.320;18.042;2022-11-23T03:54:46;6.35;;;3.20;;
25657;SDS011;13517;59.320;18.042;2022-11-23T03:57:12;9.82;;;3.45;;
25657;SDS011;13517;59.320;18.042;2022-11-23T03:59:37;4.65;;;3.33;;
25657;SDS011;13517;59.320;18.042;2022-11-23T04:02:03;7.22;;;3.30;;
25657;SDS011;13517;59.320;18.042;2022-11-23T04:04:29;5.72;;;3.10;;
25657;SDS011;13517;59.320;18.042;2022-11-23T04:06:55;4.05;;;3.15;;
25657;SDS011;13517;59.320;18.042;2022-11-23T04:09:20;7.03;;;3.30;;
25657;SDS011;13517;59.320;18.042;2022-11-23T04:11:46;6.05;;;3.42;;
25657;SDS011;13517;59.320;18.042;2022-11-23T04:14:12;5.30;;;2.80;;
25657;SDS011;13517;59.320;18.042;2022-11-23T04:16:37;6.07;;;2.88;;
25657;SDS011;13517;59.320;18.042;2022-11-23T04:19:02;9.82;;;3.15;;
25657;SDS011;13517;59.320;18.042;2022-11-23T04:21:28;4.07;;;3.30;;
25657;SDS011;13517;59.320;18.042;2022-11-23T04:23:53;2.75;;;2.47;;
25657;SDS011;13517;59.320;18.042;2022-11-23T04:26:19;5.03;;;2.95;;
25657;SDS011;13517;59.320;18.042;2022-11-23T04:28:44;5.05;;;3.00;;
25657;SDS011;13517;59.320;18.042;2022-11-23T04:31:09;7.43;;;2.85;;
25657;SDS011;13517;59.320;18.042;2022-11-23T04:33:35;5.95;;;3.20;;
25657;SDS011;13517;59.320;18.042;2022-11-23T04:36:00;5.65;;;2.88;;
25657;SDS011;13517;59.320;18.042;2022-11-23T04:38:26;3.63;;;2.53;;
25657;SDS011;13517;59.320;18.042;2022-11-23T04:40:51;5.68;;;2.97;;
25657;SDS011;13517;59.320;18.042;2022-11-23T04:43:17;5.07;;;2.85;;
25657;SDS011;13517;59.320;18.042;2022-11-23T04:45:43;4.47;;;2.65;;
25657;SDS011;13517;59.320;18.042;2022-11-23T04:48:08;7.60;;;2.80;;
25657;SDS011;13517;59.320;18.042;2022-11-23T04:50:34;5.80;;;2.97;;
25657;SDS011;13517;59.320;18.042;2022-11-23T04:53:01;4.63;;;2.80;;
25657;SDS011;13517;59.320;18.042;2022-11-23T04:55:27;8.52;;;3.22;;
25657;SDS011;13517;59.320;18.042;2022-11-23T04:57:52;3.72;;;2.80;;
25657;SDS011;13517;59.320;18.042;2022-11-23T05:00:18;3.97;;;3.00;;
25657;SDS011;13517;59.320;18.042;2022-11-23T05:02:43;8.32;;;3.05;;
25657;SDS011;13517;59.320;18.042;2022-11-23T05:05:09;6.22;;;4.25;;
25657;SDS011;13517;59.320;18.042;2022-11-23T05:07:34;4.13;;;3.08;;
25657;SDS011;13517;59.320;18.042;2022-11-23T05:09:59;4.25;;;3.20;;
25657;SDS011;13517;59.320;18.042;2022-11-23T05:12:25;4.57;;;2.88;;
25657;SDS011;13517;59.320;18.042;2022-11-23T05:14:50;4.90;;;3.35;;
25657;SDS011;13517;59.320;18.042;2022-11-23T05:17:16;3.55;;;2.72;;
25657;SDS011;13517;59.320;18.042;2022-11-23T05:19:41;3.90;;;2.45;;
25657;SDS011;13517;59.320;18.042;2022-11-23T05:22:06;6.75;;;2.60;;
25657;SDS011;13517;59.320;18.042;2022-11-23T05:24:32;4.68;;;2.55;;
25657;SDS011;13517;59.320;18.042;2022-11-23T05:26:58;7.90;;;2.95;;
25657;SDS011;13517;59.320;18.042;2022-11-23T05:29:23;5.57;;;2.97;;
25657;SDS011;13517;59.320;18.042;2022-11-23T05:31:49;4.53;;;3.25;;
25657;SDS011;13517;59.320;18.042;2022-11-23T05:34:14;6.57;;;3.50;;
25657;SDS011;13517;59.320;18.042;2022-11-23T05:36:40;5.75;;;3.60;;
25657;SDS011;13517;59.320;18.042;2022-11-23T05:39:05;8.75;;;3.40;;
25657;SDS011;13517;59.320;18.042;2022-11-23T05:41:31;8.18;;;3.13;;
25657;SDS011;13517;59.320;18.042;2022-11-23T05:43:57;5.60;;;3.75;;
25657;SDS011;13517;59.320;18.042;2022-11-23T05:46:22;7.65;;;4.10;;
25657;SDS011;13517;59.320;18.042;2022-11-23T05:48:47;5.65;;;3.75;;
25657;SDS011;13517;59.320;18.042;2022-11-23T05:51:13;5.95;;;3.40;;
25657;SDS011;13517;59.320;18.042;2022-11-23T05:53:38;8.30;;;4.10;;
25657;SDS011;13517;59.320;18.042;2022-11-23T05:56:04;7.80;;;4.05;;
25657;SDS011;13517;59.320;18.042;2022-11-23T05:58:29;5.32;;;4.05;;
25657;SDS011;13517;59.320;18.042;2022-11-23T06:00:58;8.40;;;4.78;;
25657;SDS011;13517;59.320;18.042;2022-11-23T06:03:24;6.47;;;4.85;;
25657;SDS011;13517;59.320;18.042;2022-11-23T06:05:50;8.70;;;4.95;;
25657;SDS011;13517;59.320;18.042;2022-11-23T06:08:16;7.03;;;4.72;;
25657;SDS011;13517;59.320;18.042;2022-11-23T06:10:41;6.28;;;4.68;;
25657;SDS011;13517;59.320;18.042;2022-11-23T06:13:07;8.55;;;4.72;;
25657;SDS011;13517;59.320;18.042;2022-11-23T06:15:32;5.95;;;4.05;;
25657;SDS011;13517;59.320;18.042;2022-11-23T06:18:00;6.13;;;4.03;;
25657;SDS011;13517;59.320;18.042;2022-11-23T06:20:28;5.75;;;3.47;;
25657;SDS011;13517;59.320;18.042;2022-11-23T06:22:54;5.43;;;3.28;;
25657;SDS011;13517;59.320;18.042;2022-11-23T06:25:20;6.75;;;3.20;;
25657;SDS011;13517;59.320;18.042;2022-11-23T06:27:55;4.85;;;3.50;;
25657;SDS011;13517;59.320;18.042;2022-11-23T06:30:22;8.13;;;4.28;;
25657;SDS011;13517;59.320;18.042;2022-11-23T06:32:49;7.72;;;5.35;;
25657;SDS011;13517;59.320;18.042;2022-11-23T06:35:15;12.82;;;5.55;;
25657;SDS011;13517;59.320;18.042;2022-11-23T06:37:40;7.75;;;5.25;;
25657;SDS011;13517;59.320;18.042;2022-11-23T06:40:06;7.43;;;4.57;;
25657;SDS011;13517;59.320;18.042;2022-11-23T06:42:33;7.53;;;4.57;;
25657;SDS011;13517;59.320;18.042;2022-11-23T06:44:58;11.30;;;5.18;;
25657;SDS011;13517;59.320;18.042;2022-11-23T06:47:23;10.05;;;4.70;;
25657;SDS011;13517;59.320;18.042;2022-11-23T06:49:49;7.25;;;4.47;;
25657;SDS011;13517;59.320;18.042;2022-11-23T06:52:14;8.43;;;4.35;;
25657;SDS011;13517;59.320;18.042;2022-11-23T06:54:40;6.78;;;4.85;;
25657;SDS011;13517;59.320;18.042;2022-11-23T06:57:08;7.85;;;5.22;;
25657;SDS011;13517;59.320;18.042;2022-11-23T06:59:33;14.38;;;6.47;;
25657;SDS011;13517;59.320;18.042;2022-11-23T07:01:59;12.50;;;5.95;;
25657;SDS011;13517;59.320;18.042;2022-11-23T07:04:26;10.77;;;6.43;;
25657;SDS011;13517;59.320;18.042;2022-11-23T07:06:51;11.20;;;5.78;;
25657;SDS011;13517;59.320;18.042;2022-11-23T07:09:16;10.90;;;5.80;;
25657;SDS011;13517;59.320;18.042;2022-11-23T07:11:42;12.00;;;5.82;;
25657;SDS011;13517;59.320;18.042;2022-11-23T07:14:08;10.77;;;5.28;;
25657;SDS011;13517;59.320;18.042;2022-11-23T07:16:33;9.07;;;4.82;;
25657;SDS011;13517;59.320;18.042;2022-11-23T07:18:59;11.13;;;5.47;;
25657;SDS011;13517;59.320;18.042;2022-11-23T07:21:24;9.77;;;5.93;;
25657;SDS011;13517;59.320;18.042;2022-11-23T07:23:50;12.15;;;5.10;;
25657;SDS011;13517;59.320;18.042;2022-11-23T07:26:16;9.73;;;5.82;;
25657;SDS011;13517;59.320;18.042;2022-11-23T07:28:41;10.77;;;6.13;;
25657;SDS011;13517;59.320;18.042;2022-11-23T07:31:06;12.23;;;6.35;;
25657;SDS011;13517;59.320;18.042;2022-11-23T07:33:32;11.93;;;6.00;;
25657;SDS011;13517;59.320;18.042;2022-11-23T07:35:59;9.32;;;5.85;;
25657;SDS011;13517;59.320;18.042;2022-11-23T07:38:26;8.50;;;6.00;;
25657;SDS011;13517;59.320;18.042;2022-11-23T07:40:52;9.40;;;5.47;;
25657;SDS011;13517;59.320;18.042;2022-11-23T07:43:18;10.18;;;5.90;;
25657;SDS011;13517;59.320;18.042;2022-11-23T07:45:43;14.13;;;6.05;;
25657;SDS011;13517;59.320;18.042;2022-11-23T07:48:09;9.55;;;5.55;;
25657;SDS011;13517;59.320;18.042;2022-11-23T07:50:37;12.02;;;5.85;;
25657;SDS011;13517;59.320;18.042;2022-11-23T07:53:04;12.32;;;5.15;;
25657;SDS011;13517;59.320;18.042;2022-11-23T07:55:30;12.40;;;4.53;;
25657;SDS011;13517;59.320;18.042;2022-11-23T07:57:56;9.05;;;5.03;;
25657;SDS011;13517;59.320;18.042;2022-11-23T08:00:22;10.30;;;4.47;;
25657;SDS011;13517;59.320;18.042;2022-11-23T08:02:49;7.60;;;4.93;;
25657;SDS011;13517;59.320;18.042;2022-11-23T08:05:14;10.70;;;4.78;;
25657;SDS011;13517;59.320;18.042;2022-11-23T08:07:40;9.02;;;4.50;;
25657;SDS011;13517;59.320;18.042;2022-11-23T08:10:06;7.72;;;4.63;;
25657;SDS011;13517;59.320;18.042;2022-11-23T08:12:32;7.65;;;4.00;;
25657;SDS011;13517;59.320;18.042;2022-11-23T08:14:57;7.20;;;4.72;;
25657;SDS011;13517;59.320;18.042;2022-11-23T08:17:23;6.28;;;3.90;;
25657;SDS011;13517;59.320;18.042;2022-11-23T08:19:48;7.35;;;4.40;;
25657;SDS011;13517;59.320;18.042;2022-11-23T08:22:13;10.38;;;4.65;;
25657;SDS011;13517;59.320;18.042;2022-11-23T08:24:39;9.13;;;4.78;;
25657;SDS011;13517;59.320;18.042;2022-11-23T08:27:04;9.27;;;4.97;;
25657;SDS011;13517;59.320;18.042;2022-11-23T08:29:29;8.60;;;5.30;;
25657;SDS011;13517;59.320;18.042;2022-11-23T08:31:55;7.80;;;4.60;;
25657;SDS011;13517;59.320;18.042;2022-11-23T08:34:20;11.93;;;5.82;;
25657;SDS011;13517;59.320;18.042;2022-11-23T08:36:46;9.02;;;5.22;;
25657;SDS011;13517;59.320;18.042;2022-11-23T08:39:12;7.43;;;4.90;;
25657;SDS011;13517;59.320;18.042;2022-11-23T08:41:39;12.00;;;5.38;;
25657;SDS011;13517;59.320;18.042;2022-11-23T08:44:05;8.50;;;5.30;;
25657;SDS011;13517;59.320;18.042;2022-11-23T08:46:32;12.52;;;5.70;;
25657;SDS011;13517;59.320;18.042;2022-11-23T08:48:57;7.45;;;5.43;;
25657;SDS011;13517;59.320;18.042;2022-11-23T08:51:23;10.20;;;5.43;;
25657;SDS011;13517;59.320;18.042;2022-11-23T08:53:48;8.25;;;5.20;;
25657;SDS011;13517;59.320;18.042;2022-11-23T08:56:14;9.40;;;5.50;;
25657;SDS011;13517;59.320;18.042;2022-11-23T08:58:40;11.25;;;5.90;;
25657;SDS011;13517;59.320;18.042;2022-11-23T09:01:12;12.18;;;6.15;;
25657;SDS011;13517;59.320;18.042;2022-11-23T09:03:39;8.98;;;5.82;;
25657;SDS011;13517;59.320;18.042;2022-11-23T09:06:05;17.40;;;6.28;;
25657;SDS011;13517;59.320;18.042;2022-11-23T09:08:30;9.85;;;5.90;;
25657;SDS011;13517;59.320;18.042;2022-11-23T09:11:00;12.13;;;5.22;;
25657;SDS011;13517;59.320;18.042;2022-11-23T09:13:28;11.02;;;5.88;;
25657;SDS011;13517;59.320;18.042;2022-11-23T09:16:00;10.45;;;6.05;;
25657;SDS011;13517;59.320;18.042;2022-11-23T09:18:26;10.27;;;5.90;;
25657;SDS011;13517;59.320;18.042;2022-11-23T09:20:54;11.30;;;6.28;;
25657;SDS011;13517;59.320;18.042;2022-11-23T09:23:20;10.75;;;6.05;;
25657;SDS011;13517;59.320;18.042;2022-11-23T09:25:46;10.23;;;5.35;;
25657;SDS011;13517;59.320;18.042;2022-11-23T09:28:12;15.18;;;5.22;;
25657;SDS011;13517;59.320;18.042;2022-11-23T09:30:39;10.52;;;5.47;;
25657;SDS011;13517;59.320;18.042;2022-11-23T09:33:05;11.18;;;4.88;;
25657;SDS011;13517;59.320;18.042;2022-11-23T09:35:30;10.40;;;6.15;;
25657;SDS011;13517;59.320;18.042;2022-11-23T09:37:59;8.85;;;4.57;;
25657;SDS011;13517;59.320;18.042;2022-11-23T09:40:29;7.95;;;4.75;;
25657;SDS011;13517;59.320;18.042;2022-11-23T09:43:19;9.27;;;4.68;;
25657;SDS011;13517;59.320;18.042;2022-11-23T09:46:10;10.18;;;4.57;;
25657;SDS011;13517;59.320;18.042;2022-11-23T09:51:26;6.93;;;4.18;;
25657;SDS011;13517;59.320;18.042;2022-11-23T09:53:55;6.72;;;4.00;;
25657;SDS011;13517;59.320;18.042;2022-11-23T09:56:26;9.98;;;5.25;;
25657;SDS011;13517;59.320;18.042;2022-11-23T09:58:54;6.57;;;4.18;;
25657;SDS011;13517;59.320;18.042;2022-11-23T10:01:22;9.70;;;4.72;;
25657;SDS011;13517;59.320;18.042;2022-11-23T10:03:49;8.40;;;4.57;;
25657;SDS011;13517;59.320;18.042;2022-11-23T10:16:28;4.88;;;3.67;;
25657;SDS011;13517;59.320;18.042;2022-11-23T10:24:30;7.30;;;4.60;;
25657;SDS011;13517;59.320;18.042;2022-11-23T10:27:00;7.50;;;4.40;;
25657;SDS011;13517;59.320;18.042;2022-11-23T10:29:31;7.53;;;4.57;;
25657;SDS011;13517;59.320;18.042;2022-11-23T10:37:20;10.60;;;5.28;;
25657;SDS011;13517;59.320;18.042;2022-11-23T10:39:45;5.88;;;4.15;;
25657;SDS011;13517;59.320;18.042;2022-11-23T10:42:22;10.13;;;4.65;;
25657;SDS011;13517;59.320;18.042;2022-11-23T10:44:54;10.77;;;4.88;;
25657;SDS011;13517;59.320;18.042;2022-11-23T10:47:36;7.15;;;4.50;;
25657;SDS011;13517;59.320;18.042;2022-11-23T10:50:17;7.30;;;4.70;;
25657;SDS011;13517;59.320;18.042;2022-11-23T10:53:11;7.75;;;5.20;;
25657;SDS011;13517;59.320;18.042;2022-11-23T10:55:54;6.78;;;4.93;;
25657;SDS011;13517;59.320;18.042;2022-11-23T10:58:44;10.15;;;5.05;;
25657;SDS011;13517;59.320;18.042;2022-11-23T11:03:38;7.28;;;5.05;;
25657;SDS011;13517;59.320;18.042;2022-11-23T11:06:03;9.35;;;5.20;;
25657;SDS011;13517;59.320;18.042;2022-11-23T11:08:30;10.23;;;5.13;;
25657;SDS011;13517;59.320;18.042;2022-11-23T11:11:18;9.45;;;4.90;;
25657;SDS011;13517;59.320;18.042;2022-11-23T11:13:47;9.45;;;4.90;;
25657;SDS011;13517;59.320;18.042;2022-11-23T11:16:17;11.23;;;5.10;;
25657;SDS011;13517;59.320;18.042;2022-11-23T11:18:55;8.95;;;5.40;;
25657;SDS011;13517;59.320;18.042;2022-11-23T11:26:30;9.25;;;5.72;;
25657;SDS011;13517;59.320;18.042;2022-11-23T11:28:59;9.70;;;5.47;;
25657;SDS011;13517;59.320;18.042;2022-11-23T11:34:18;10.05;;;5.47;;
25657;SDS011;13517;59.320;18.042;2022-11-23T11:36:56;10.18;;;5.72;;
25657;SDS011;13517;59.320;18.042;2022-11-23T11:40:08;10.57;;;5.60;;
25657;SDS011;13517;59.320;18.042;2022-11-23T11:42:34;10.77;;;5.50;;
25657;SDS011;13517;59.320;18.042;2022-11-23T11:45:03;10.85;;;5.40;;
25657;SDS011;13517;59.320;18.042;2022-11-23T11:47:36;9.25;;;5.60;;
25657;SDS011;13517;59.320;18.042;2022-11-23T11:50:19;10.00;;;5.90;;
25657;SDS011;13517;59.320;18.042;2022-11-23T11:52:49;9.80;;;5.25;;
25657;SDS011;13517;59.320;18.042;2022-11-23T11:57:51;8.52;;;5.40;;
25657;SDS011;13517;59.320;18.042;2022-11-23T12:00:20;12.02;;;6.13;;
25657;SDS011;13517;59.320;18.042;2022-11-23T12:05:45;8.73;;;5.75;;
25657;SDS011;13517;59.320;18.042;2022-11-23T12:08:34;13.55;;;5.93;;
25657;SDS011;13517;59.320;18.042;2022-11-23T12:11:10;9.85;;;5.43;;
25657;SDS011;13517;59.320;18.042;2022-11-23T12:13:37;8.00;;;5.45;;
25657;SDS011;13517;59.320;18.042;2022-11-23T12:38:53;7.22;;;3.30;;
25657;SDS011;13517;59.320;18.042;2022-11-23T12:44:31;7.75;;;3.72;;
25657;SDS011;13517;59.320;18.042;2022-11-23T12:58:32;8.07;;;3.53;;
25657;SDS011;13517;59.320;18.042;2022-11-23T13:01:05;3.65;;;2.53;;
25657;SDS011;13517;59.320;18.042;2022-11-23T13:22:54;5.00;;;2.72;;
25657;SDS011;13517;59.320;18.042;2022-11-23T13:25:26;5.15;;;3.22;;
25657;SDS011;13517;59.320;18.042;2022-11-23T13:27:54;3.33;;;2.35;;
25657;SDS011;13517;59.320;18.042;2022-11-23T13:43:04;5.90;;;2.78;;
25657;SDS011;13517;59.320;18.042;2022-11-23T13:45:32;6.45;;;2.38;;
25657;SDS011;13517;59.320;18.042;2022-11-23T13:53:18;7.70;;;2.60;;
25657;SDS011;13517;59.320;18.042;2022-11-23T13:55:46;5.93;;;2.97;;
25657;SDS011;13517;59.320;18.042;2022-11-23T14:00:51;4.50;;;2.35;;
25657;SDS011;13517;59.320;18.042;2022-11-23T14:06:28;2.92;;;2.25;;
25657;SDS011;13517;59.320;18.042;2022-11-23T14:09:11;4.90;;;2.22;;
25657;SDS011;13517;59.320;18.042;2022-11-23T14:22:25;4.03;;;2.40;;
25657;SDS011;13517;59.320;18.042;2022-11-23T14:27:54;3.70;;;2.78;;
25657;SDS011;13517;59.320;18.042;2022-11-23T14:30:43;4.18;;;2.65;;
25657;SDS011;13517;59.320;18.042;2022-11-23T14:41:19;4.85;;;2.38;;
25657;SDS011;13517;59.320;18.042;2022-11-23T14:43:47;3.25;;;2.50;;
25657;SDS011;13517;59.320;18.042;2022-11-23T14:46:18;6.40;;;2.65;;
25657;SDS011;13517;59.320;18.042;2022-11-23T14:48:45;5.63;;;2.83;;
25657;SDS011;13517;59.320;18.042;2022-11-23T14:51:13;5.82;;;2.60;;
25657;SDS011;13517;59.320;18.042;2022-11-23T14:53:49;5.32;;;2.80;;
25657;SDS011;13517;59.320;18.042;2022-11-23T14:58:55;4.18;;;2.83;;
25657;SDS011;13517;59.320;18.042;2022-11-23T15:01:31;4.53;;;2.50;;
25657;SDS011;13517;59.320;18.042;2022-11-23T15:04:07;5.32;;;3.08;;
25657;SDS011;13517;59.320;18.042;2022-11-23T15:06:36;5.82;;;2.70;;
25657;SDS011;13517;59.320;18.042;2022-11-23T15:09:10;4.72;;;2.92;;
25657;SDS011;13517;59.320;18.042;2022-11-23T15:11:39;7.50;;;3.10;;
25657;SDS011;13517;59.320;18.042;2022-11-23T15:14:18;3.85;;;2.60;;
25657;SDS011;13517;59.320;18.042;2022-11-23T15:16:49;4.32;;;2.95;;
25657;SDS011;13517;59.320;18.042;2022-11-23T15:19:27;4.75;;;3.00;;
25657;SDS011;13517;59.320;18.042;2022-11-23T15:21:56;6.95;;;3.17;;
25657;SDS011;13517;59.320;18.042;2022-11-23T15:24:23;3.75;;;3.03;;
25657;SDS011;13517;59.320;18.042;2022-11-23T15:26:50;5.15;;;3.10;;
25657;SDS011;13517;59.320;18.042;2022-11-23T15:29:35;4.15;;;2.83;;
25657;SDS011;13517;59.320;18.042;2022-11-23T15:32:02;3.15;;;2.80;;
25657;SDS011;13517;59.320;18.042;2022-11-23T15:34:44;6.07;;;2.83;;
25657;SDS011;13517;59.320;18.042;2022-11-23T15:37:10;5.15;;;3.30;;
25657;SDS011;13517;59.320;18.042;2022-11-23T15:39:36;5.70;;;3.00;;
25657;SDS011;13517;59.320;18.042;2022-11-23T15:42:03;6.10;;;3.20;;
25657;SDS011;13517;59.320;18.042;2022-11-23T15:44:29;6.75;;;3.13;;
25657;SDS011;13517;59.320;18.042;2022-11-23T15:47:01;6.10;;;3.47;;
25657;SDS011;13517;59.320;18.042;2022-11-23T15:49:38;6.35;;;3.60;;
25657;SDS011;13517;59.320;18.042;2022-11-23T15:52:04;3.83;;;3.00;;
25657;SDS011;13517;59.320;18.042;2022-11-23T15:54:39;5.15;;;2.88;;
25657;SDS011;13517;59.320;18.042;2022-11-23T15:57:05;5.82;;;3.20;;
25657;SDS011;13517;59.320;18.042;2022-11-23T16:00:17;4.15;;;3.08;;
25657;SDS011;13517;59.320;18.042;2022-11-23T16:02:24;6.30;;;3.08;;
25657;SDS011;13517;59.320;18.042;2022-11-23T16:07:52;2.95;;;2.00;;
25657;SDS011;13517;59.320;18.042;2022-11-23T16:10:30;4.40;;;2.22;;
25657;SDS011;13517;59.320;18.042;2022-11-23T16:12:59;2.60;;;1.80;;
25657;SDS011;13517;59.320;18.042;2022-11-23T16:15:44;2.97;;;1.88;;
25657;SDS011;13517;59.320;18.042;2022-11-23T16:23:25;6.63;;;3.15;;
25657;SDS011;13517;59.320;18.042;2022-11-23T16:25:58;4.13;;;2.10;;
25657;SDS011;13517;59.320;18.042;2022-11-23T16:28:30;3.53;;;2.05;;
25657;SDS011;13517;59.320;18.042;2022-11-23T16:30:58;4.00;;;1.83;;
25657;SDS011;13517;59.320;18.042;2022-11-23T16:33:24;2.35;;;1.90;;
25657;SDS011;13517;59.320;18.042;2022-11-23T16:35:50;3.17;;;1.90;;
25657;SDS011;13517;59.320;18.042;2022-11-23T16:38:16;2.80;;;1.77;;
25657;SDS011;13517;59.320;18.042;2022-11-23T16:40:41;2.72;;;2.40;;
25657;SDS011;13517;59.320;18.042;2022-11-23T16:43:08;3.88;;;2.08;;
25657;SDS011;13517;59.320;18.042;2022-11-23T16:45:35;5.25;;;2.95;;
25657;SDS011;13517;59.320;18.042;2022-11-23T16:48:07;4.70;;;3.50;;
25657;SDS011;13517;59.320;18.042;2022-11-23T16:50:52;4.88;;;3.08;;
25657;SDS011;13517;59.320;18.042;2022-11-23T16:53:18;9.90;;;3.10;;
25657;SDS011;13517;59.320;18.042;2022-11-23T16:55:49;4.30;;;2.92;;
25657;SDS011;13517;59.320;18.042;2022-11-23T16:58:17;9.50;;;3.03;;
25657;SDS011;13517;59.320;18.042;2022-11-23T17:00:43;4.22;;;2.83;;
25657;SDS011;13517;59.320;18.042;2022-11-23T17:03:13;4.45;;;2.75;;
25657;SDS011;13517;59.320;18.042;2022-11-23T17:05:39;4.05;;;2.80;;
25657;SDS011;13517;59.320;18.042;2022-11-23T17:08:04;4.40;;;3.20;;
25657;SDS011;13517;59.320;18.042;2022-11-23T17:10:30;6.40;;;4.18;;
25657;SDS011;13517;59.320;18.042;2022-11-23T17:12:56;8.18;;;3.30;;
25657;SDS011;13517;59.320;18.042;2022-11-23T17:15:22;7.65;;;3.78;;
25657;SDS011;13517;59.320;18.042;2022-11-23T17:17:48;9.80;;;3.75;;